Time;durP1;ratioP1;P1;durP2;ratioP2;P2;SDS_P1;SDS_P2;PMS_P1;PMS_P2;Temp;Humidity;BMP_temperature;BMP_pressure;BME280_temperature;BME280_humidity;BME280_pressure;Samples;Min_cycle;Max_cycle;Signal;HPM_P1;HPM_P2
2023/04/23 00:01:07;;;;;;;;;4.00;2.00;;;;;14.42;58.05;100057.75;4955849;28;45584;-61
2023/04/23 00:03:34;;;;;;;;;2.33;2.00;;;;;14.42;57.98;100059.53;4943645;28;45640;-61
2023/04/23 00:06:04;;;;;;;;;1.67;1.67;;;;;14.38;58.61;100058.03;4956511;28;45473;-61
2023/04/23 00:08:31;;;;;;;;;5.67;4.67;;;;;14.36;58.31;100056.31;4956213;28;45482;-61
2023/04/23 00:10:56;;;;;;;;;2.33;2.33;;;;;14.36;58.85;100056.31;4956567;28;45498;-61
2023/04/23 00:13:25;;;;;;;;;1.50;1.50;;;;;14.37;58.21;100051.88;4955497;28;45692;-61
2023/04/23 00:15:51;;;;;;;;;4.00;3.00;;;;;14.36;58.92;100056.31;4955246;28;45450;-61
2023/04/23 00:18:16;;;;;;;;;2.33;2.00;;;;;14.38;58.26;100068.63;4956204;28;45480;-61
2023/04/23 00:20:42;;;;;;;;;3.00;3.00;;;;;14.34;58.33;100062.63;4955934;28;49560;-61
2023/04/23 00:23:07;;;;;;;;;5.33;4.00;;;;;14.28;58.79;100070.94;4956304;28;45382;-61
2023/04/23 00:25:32;;;;;;;;;2.33;2.33;;;;;14.24;58.92;100053.53;4956077;28;46322;-61
2023/04/23 00:27:58;;;;;;;;;3.00;3.00;;;;;14.27;59.02;100062.16;4955938;28;51170;-61
2023/04/23 00:30:23;;;;;;;;;3.00;3.00;;;;;14.27;59.24;100051.59;4956215;28;45506;-61
2023/04/23 00:32:48;;;;;;;;;4.00;3.67;;;;;14.23;58.96;100052.69;4956145;28;45431;-61
2023/04/23 00:35:14;;;;;;;;;1.00;1.00;;;;;14.21;59.03;100057.25;4956264;28;45458;-61
2023/04/23 00:37:39;;;;;;;;;2.00;2.00;;;;;14.22;59.06;100056.28;4955918;28;45481;-61
2023/04/23 00:40:06;;;;;;;;;2.00;2.00;;;;;14.22;59.36;100055.44;4956280;28;45387;-61
2023/04/23 00:42:32;;;;;;;;;2.67;2.67;;;;;14.24;59.59;100058.84;4954945;28;45312;-61
2023/04/23 00:44:58;;;;;;;;;5.00;4.00;;;;;14.23;59.53;100058.00;4956033;28;45461;-61
2023/04/23 00:47:24;;;;;;;;;4.00;2.33;;;;;14.23;59.12;100055.34;4956175;28;45393;-61
2023/04/23 00:49:50;;;;;;;;;2.00;2.00;;;;;14.19;59.52;100048.56;4958530;28;45462;-61
2023/04/23 00:52:16;;;;;;;;;3.33;2.00;;;;;14.18;59.30;100046.81;4959470;28;45538;-61
2023/04/23 00:54:41;;;;;;;;;2.67;1.67;;;;;14.18;59.14;100054.75;4959001;28;46079;-61
2023/04/23 00:57:06;;;;;;;;;2.00;2.00;;;;;14.15;59.63;100047.84;4959376;28;45507;-61
2023/04/23 00:59:33;;;;;;;;;4.00;4.00;;;;;14.10;59.55;100038.50;4958260;28;45533;-61
2023/04/23 01:01:59;;;;;;;;;2.00;2.00;;;;;14.11;60.35;100046.34;4959381;28;45561;-61
2023/04/23 01:04:26;;;;;;;;;2.33;2.00;;;;;14.06;60.30;100031.69;4958989;28;45541;-61
2023/04/23 01:06:52;;;;;;;;;2.00;2.00;;;;;14.08;60.33;100040.41;4959214;28;45403;-61
2023/04/23 01:09:18;;;;;;;;;2.00;2.00;;;;;14.04;60.39;100023.00;4959139;28;45386;-61
2023/04/23 01:11:43;;;;;;;;;5.00;4.00;;;;;14.05;60.38;100030.84;4959216;28;45617;-61
2023/04/23 01:14:10;;;;;;;;;2.67;1.00;;;;;14.06;60.85;100032.53;4959490;28;45939;-61
2023/04/23 01:16:37;;;;;;;;;4.00;2.00;;;;;14.03;60.39;100031.88;4959096;28;45490;-61
2023/04/23 01:19:05;;;;;;;;;3.00;3.00;;;;;14.00;60.54;100016.22;4959337;28;45430;-61
2023/04/23 01:21:33;;;;;;;;;2.00;2.00;;;;;13.95;60.70;100012.97;4959177;28;45455;-61
2023/04/23 01:23:58;;;;;;;;;1.00;1.00;;;;;13.97;61.10;100019.88;4958711;28;45610;-61
2023/04/23 01:26:24;;;;;;;;;2.00;2.00;;;;;13.94;61.38;100012.09;4958817;28;45426;-61
2023/04/23 01:28:51;;;;;;;;;2.00;2.00;;;;;13.97;61.33;100014.59;4959110;28;45331;-61
2023/04/23 01:31:17;;;;;;;;;2.00;2.00;;;;;13.91;61.01;100009.66;4958801;28;45422;-61
2023/04/23 01:33:43;;;;;;;;;2.33;2.00;;;;;13.92;61.12;100011.38;4958828;28;46209;-61
2023/04/23 01:36:09;;;;;;;;;1.00;1.00;;;;;13.86;61.55;100001.13;4958790;28;45359;-61
2023/04/23 01:38:37;;;;;;;;;1.67;1.67;;;;;13.79;61.84;100007.72;4959141;28;45491;-61
2023/04/23 01:41:02;;;;;;;;;1.33;1.33;;;;;13.82;62.17;100024.25;4957993;28;45632;-61
2023/04/23 01:43:28;;;;;;;;;2.00;1.00;;;;;13.80;61.75;100004.13;4958604;28;45477;-61
2023/04/23 01:45:54;;;;;;;;;2.00;2.00;;;;;13.78;61.81;99998.97;4958810;28;45381;-61
2023/04/23 01:48:20;;;;;;;;;2.00;2.00;;;;;13.80;62.06;100004.13;4958810;28;45390;-61
2023/04/23 01:50:45;;;;;;;;;2.00;2.00;;;;;13.78;61.96;99998.09;4958650;28;45500;-61
2023/04/23 01:53:11;;;;;;;;;3.00;3.00;;;;;13.73;61.78;99998.38;4958563;28;48411;-61
2023/04/23 01:55:41;;;;;;;;;2.67;1.00;;;;;13.67;61.77;99989.00;4958460;28;45433;-60
2023/04/23 01:58:07;;;;;;;;;4.00;4.00;;;;;13.65;62.35;99995.31;4958474;28;45473;-60
2023/04/23 02:00:32;;;;;;;;;2.00;2.00;;;;;13.61;62.43;99980.56;4957288;28;45443;-60
2023/04/23 02:02:57;;;;;;;;;4.00;3.00;;;;;13.60;62.32;99989.44;4958416;28;45572;-61
2023/04/23 02:05:24;;;;;;;;;2.00;2.00;;;;;13.55;62.53;99973.00;4958596;28;47928;-60
2023/04/23 02:07:51;;;;;;;;;3.67;3.00;;;;;13.55;62.54;99986.22;4958558;28;45430;-60
2023/04/23 02:10:17;;;;;;;;;4.33;4.00;;;;;13.52;62.82;99995.16;4956352;28;45613;-60
2023/04/23 02:12:44;;;;;;;;;5.00;5.00;;;;;13.51;63.16;99989.97;4956452;28;46165;-60
2023/04/23 02:15:10;;;;;;;;;5.33;4.00;;;;;13.51;62.67;99997.88;4950417;28;45521;-60
2023/04/23 02:17:38;;;;;;;;;2.33;2.33;;;;;13.50;62.77;99989.13;4957814;28;45488;-60
2023/04/23 02:20:05;;;;;;;;;5.00;5.00;;;;;13.49;62.94;99990.06;4955925;28;45604;-60
2023/04/23 02:22:31;;;;;;;;;4.67;4.67;;;;;13.47;63.19;99991.94;4955931;28;45693;-60
2023/04/23 02:24:57;;;;;;;;;5.33;5.00;;;;;13.46;63.31;99991.09;4954709;28;45497;-63
2023/04/23 02:27:22;;;;;;;;;3.33;3.33;;;;;13.44;63.21;99987.69;4957688;28;45461;-60
2023/04/23 02:29:48;;;;;;;;;3.33;3.33;;;;;13.47;62.99;99989.28;4958036;28;45567;-60
2023/04/23 02:32:14;;;;;;;;;2.33;2.33;;;;;13.46;63.18;99995.53;4956792;28;46047;-60
2023/04/23 02:34:39;;;;;;;;;4.00;4.00;;;;;13.46;63.24;99991.09;4957440;28;45525;-60
2023/04/23 02:37:05;;;;;;;;;2.00;2.00;;;;;13.43;63.13;99986.00;4958178;28;45439;-60
2023/04/23 02:39:31;;;;;;;;;3.67;3.67;;;;;13.38;63.47;99992.44;4957977;28;45413;-62
2023/04/23 02:41:57;;;;;;;;;4.33;4.33;;;;;13.36;63.83;99984.63;4957865;28;45383;-61
2023/04/23 02:44:23;;;;;;;;;4.67;4.67;;;;;13.34;63.41;99978.56;4957914;28;45391;-61
2023/04/23 02:46:48;;;;;;;;;5.33;4.00;;;;;13.27;63.91;99974.56;4957963;28;45413;-60
2023/04/23 02:49:14;;;;;;;;;4.00;4.00;;;;;13.24;63.70;99974.72;4957730;28;45595;-60
2023/04/23 02:51:39;;;;;;;;;1.33;1.33;;;;;13.22;64.15;99969.53;4956429;28;46253;-61
2023/04/23 02:54:05;;;;;;;;;2.33;2.33;;;;;13.22;64.15;99969.53;4957272;28;65298;-61
2023/04/23 02:56:30;;;;;;;;;3.67;3.67;;;;;13.19;64.30;99972.34;4957457;28;45840;-60
2023/04/23 02:58:55;;;;;;;;;4.00;4.00;;;;;13.18;64.50;99970.63;4957679;28;45555;-60
2023/04/23 03:01:21;;;;;;;;;4.00;4.00;;;;;13.12;64.64;99960.41;4957617;28;45580;-60
2023/04/23 03:03:46;;;;;;;;;6.00;4.33;;;;;13.12;64.43;99967.50;4956044;28;45450;-61
2023/04/23 03:06:11;;;;;;;;;5.67;4.33;;;;;13.09;64.36;99960.59;4957835;28;45492;-61
2023/04/23 03:08:37;;;;;;;;;5.00;5.00;;;;;13.01;64.47;99963.66;4957421;28;45697;-61
2023/04/23 03:11:02;;;;;;;;;5.00;5.00;;;;;13.02;64.51;99960.06;4956331;28;59330;-61
2023/04/23 03:13:27;;;;;;;;;5.67;4.67;;;;;13.04;64.57;99970.56;4957617;28;45449;-62
2023/04/23 03:15:55;;;;;;;;;5.33;4.00;;;;;13.00;64.17;99955.81;4958055;28;45485;-61
2023/04/23 03:18:20;;;;;;;;;5.33;4.00;;;;;12.94;64.51;99954.38;4957368;28;45513;-63
2023/04/23 03:20:46;;;;;;;;;3.67;3.67;;;;;12.90;64.84;99950.22;4957167;28;45340;-61
2023/04/23 03:23:11;;;;;;;;;4.00;4.00;;;;;12.92;64.50;99947.47;4957394;28;45399;-61
2023/04/23 03:25:36;;;;;;;;;4.00;4.00;;;;;12.86;64.25;99939.91;4956960;28;53608;-61
2023/04/23 03:28:02;;;;;;;;;3.33;3.33;;;;;12.79;64.69;99936.75;4957362;28;45678;-62
2023/04/23 03:30:29;;;;;;;;;4.00;4.00;;;;;12.80;64.65;99939.28;4957159;28;45391;-61
2023/04/23 03:32:56;;;;;;;;;3.00;3.00;;;;;12.80;64.76;99941.94;4957232;28;45335;-61
2023/04/23 03:35:22;;;;;;;;;5.00;5.00;;;;;12.76;64.46;99945.69;4957266;28;45473;-62
2023/04/23 03:37:47;;;;;;;;;2.00;2.00;;;;;12.74;64.74;99941.44;4956809;28;45450;-61
2023/04/23 03:40:13;;;;;;;;;3.67;3.33;;;;;12.68;64.85;99936.47;4957084;28;45522;-62
2023/04/23 03:42:38;;;;;;;;;4.00;4.00;;;;;12.66;65.76;99941.84;4957129;28;45499;-61
2023/04/23 03:45:05;;;;;;;;;5.00;4.00;;;;;12.67;65.63;99942.69;4956933;28;45569;-63
2023/04/23 03:47:30;;;;;;;;;4.00;3.00;;;;;12.69;64.77;99946.09;4957198;28;45572;-62
2023/04/23 03:49:56;;;;;;;;;3.00;3.00;;;;;12.68;65.44;99947.91;4956772;28;46274;-63
2023/04/23 03:52:21;;;;;;;;;5.00;5.00;;;;;12.69;64.67;99946.97;4957004;28;45510;-60
2023/04/23 03:54:46;;;;;;;;;4.33;4.33;;;;;12.68;65.33;99940.00;4956795;28;45443;-62
2023/04/23 03:57:12;;;;;;;;;6.00;3.33;;;;;12.65;65.17;99928.72;4956569;28;55190;-63
2023/04/23 03:59:37;;;;;;;;;3.33;3.33;;;;;12.62;65.36;99926.25;4956500;28;46114;-62
2023/04/23 04:02:03;;;;;;;;;2.00;2.00;;;;;12.57;64.65;99932.66;4956813;28;45410;-63
2023/04/23 04:04:30;;;;;;;;;4.00;4.00;;;;;12.65;64.70;99939.28;4956893;28;45360;-63
2023/04/23 04:06:56;;;;;;;;;3.00;3.00;;;;;12.60;65.38;99936.91;4956660;28;45460;-62
2023/04/23 04:09:22;;;;;;;;;5.67;4.00;;;;;12.54;65.21;99934.59;4956322;28;46189;-62
2023/04/23 04:11:47;;;;;;;;;2.67;2.00;;;;;12.55;65.32;99934.53;4956544;28;45447;-61
2023/04/23 04:14:13;;;;;;;;;4.00;4.00;;;;;12.46;64.76;99911.25;4957228;28;45434;-63
2023/04/23 04:16:38;;;;;;;;;3.67;3.67;;;;;12.49;64.56;99921.69;4956716;28;45577;-62
2023/04/23 04:19:03;;;;;;;;;4.33;4.33;;;;;12.43;65.01;99918.50;4956310;28;46487;-62
2023/04/23 04:21:29;;;;;;;;;3.00;3.00;;;;;12.39;65.39;99912.56;4956523;28;45438;-61
2023/04/23 04:23:55;;;;;;;;;3.00;3.00;;;;;12.38;64.71;99906.44;4955866;28;45566;-62
2023/04/23 04:26:20;;;;;;;;;4.00;4.00;;;;;12.45;65.45;99914.00;4954972;28;45716;-63
2023/04/23 04:28:45;;;;;;;;;5.00;4.00;;;;;12.35;64.92;99908.34;4956267;28;45459;-62
2023/04/23 04:31:13;;;;;;;;;3.67;2.67;;;;;12.29;64.71;99912.19;4956377;28;45498;-62
2023/04/23 04:33:38;;;;;;;;;4.00;4.00;;;;;12.33;65.03;99912.84;4956633;28;45420;-60
2023/04/23 04:36:04;;;;;;;;;4.67;4.67;;;;;12.39;64.82;99917.81;4955414;28;60337;-63
2023/04/23 04:38:29;;;;;;;;;4.00;4.00;;;;;12.35;65.30;99913.63;4956316;28;47226;-61
2023/04/23 04:40:58;;;;;;;;;4.67;3.00;;;;;12.33;64.83;99918.13;4956345;28;45502;-61
2023/04/23 04:43:24;;;;;;;;;6.67;4.33;;;;;12.32;64.86;99913.81;4954941;28;45498;-61
2023/04/23 04:45:50;;;;;;;;;3.33;3.33;;;;;12.28;64.69;99907.00;4956342;28;45411;-61
2023/04/23 04:48:15;;;;;;;;;5.00;5.00;;;;;12.26;64.89;99906.22;4956067;28;46118;-60
2023/04/23 04:50:40;;;;;;;;;3.67;3.67;;;;;12.27;64.79;99892.94;4956204;28;45399;-60
2023/04/23 04:53:06;;;;;;;;;6.33;4.00;;;;;12.30;65.52;99894.56;4956148;28;45372;-61
2023/04/23 04:55:31;;;;;;;;;4.00;4.00;;;;;12.30;64.90;99884.88;4955975;28;45361;-63
2023/04/23 04:57:56;;;;;;;;;5.67;5.67;;;;;12.32;65.48;99892.72;4955807;28;45386;-63
2023/04/23 05:00:26;;;;;;;;;5.00;5.00;;;;;12.31;65.16;99880.47;4955889;28;45360;-60
2023/04/23 05:02:52;;;;;;;;;5.00;5.00;;;;;12.17;65.39;99860.13;4954809;28;45483;-60
2023/04/23 05:05:18;;;;;;;;;7.00;6.00;;;;;12.31;64.92;99880.47;4956049;28;45530;-61
2023/04/23 05:07:44;;;;;;;;;7.00;4.00;;;;;12.33;65.48;99883.84;4955847;28;45499;-60
2023/04/23 05:10:10;;;;;;;;;8.67;8.67;;;;;12.32;64.73;99883.00;4955741;28;45522;-60
2023/04/23 05:12:36;;;;;;;;;7.00;6.67;;;;;12.30;64.82;99884.88;4955839;28;45460;-61
2023/04/23 05:15:03;;;;;;;;;5.67;5.67;;;;;12.31;64.40;99889.22;4956478;28;45573;-61
2023/04/23 05:17:28;;;;;;;;;5.67;5.67;;;;;12.31;65.29;99886.59;4955606;28;45565;-61
2023/04/23 05:19:54;;;;;;;;;5.00;5.00;;;;;12.31;64.80;99883.94;4955649;28;45340;-61
2023/04/23 05:22:19;;;;;;;;;5.33;4.00;;;;;12.35;65.17;99882.84;4955942;28;45870;-61
2023/04/23 05:24:45;;;;;;;;;7.00;5.00;;;;;12.37;64.91;99890.69;4955822;28;45522;-61
2023/04/23 05:27:10;;;;;;;;;4.00;4.00;;;;;12.31;64.68;99888.38;4955808;28;46092;-61
2023/04/23 05:29:35;;;;;;;;;4.67;3.00;;;;;12.24;64.92;99874.66;4955700;28;45574;-61
2023/04/23 05:32:01;;;;;;;;;5.00;5.00;;;;;12.30;65.52;99887.50;4955716;28;45502;-61
2023/04/23 05:34:26;;;;;;;;;4.33;4.33;;;;;12.36;65.29;99886.34;4956299;28;45461;-61
2023/04/23 05:36:51;;;;;;;;;3.00;3.00;;;;;12.35;65.28;99880.19;4957444;28;59808;-61
2023/04/23 05:39:17;;;;;;;;;2.00;2.00;;;;;12.34;65.11;99873.22;4958652;28;50375;-63
2023/04/23 05:41:42;;;;;;;;;3.00;3.00;;;;;12.33;65.21;99861.00;4958747;28;45411;-63
2023/04/23 05:44:07;;;;;;;;;3.00;2.00;;;;;12.28;64.86;99864.81;4958852;28;45418;-63
2023/04/23 05:46:33;;;;;;;;;3.33;3.33;;;;;12.24;65.06;99863.28;4958620;28;45553;-62
2023/04/23 05:48:58;;;;;;;;;4.00;4.00;;;;;12.27;65.92;99852.56;4957731;28;45482;-62
2023/04/23 05:51:23;;;;;;;;;3.33;2.00;;;;;12.26;65.65;99864.03;4958363;28;54138;-62
2023/04/23 05:53:49;;;;;;;;;3.00;3.00;;;;;12.29;65.74;99863.88;4958837;28;45528;-62
2023/04/23 05:56:14;;;;;;;;;2.33;2.33;;;;;12.32;66.07;99861.06;4958580;28;46000;-62
2023/04/23 05:58:39;;;;;;;;;5.67;3.67;;;;;12.33;65.33;99855.72;4956927;28;45473;-62
2023/04/23 06:01:05;;;;;;;;;2.00;2.00;;;;;12.38;65.47;99858.09;4958888;28;45445;-62
2023/04/23 06:03:30;;;;;;;;;3.33;3.33;;;;;12.36;65.72;99857.34;4958410;28;45542;-63
2023/04/23 06:05:56;;;;;;;;;7.00;3.00;;;;;12.41;65.04;99857.06;4958229;28;46478;-63
2023/04/23 06:08:21;;;;;;;;;4.00;4.00;;;;;12.45;65.22;99854.19;4958345;28;45367;-60
2023/04/23 06:10:46;;;;;;;;;4.00;3.00;;;;;12.43;65.27;99853.41;4958203;28;46071;-60
2023/04/23 06:13:12;;;;;;;;;4.00;4.00;;;;;12.48;65.60;99856.66;4958558;28;45334;-63
2023/04/23 06:15:37;;;;;;;;;3.33;3.00;;;;;12.53;65.42;99856.41;4958801;28;46223;-60
2023/04/23 06:18:02;;;;;;;;;6.00;4.00;;;;;12.50;65.31;99856.59;4958244;28;45463;-60
2023/04/23 06:20:28;;;;;;;;;3.67;3.67;;;;;12.56;65.75;99866.78;4958583;28;45411;-62
2023/04/23 06:22:54;;;;;;;;;5.00;3.33;;;;;12.42;65.86;99841.19;4958007;28;45605;-61
2023/04/23 06:25:19;;;;;;;;;3.00;3.00;;;;;12.55;65.64;99852.75;4956862;28;45846;-62
2023/04/23 06:27:45;;;;;;;;;6.00;5.00;;;;;12.62;65.34;99860.31;4958163;28;45494;-61
2023/04/23 06:30:10;;;;;;;;;6.33;4.67;;;;;12.62;65.41;99857.69;4958188;28;45434;-61
2023/04/23 06:32:36;;;;;;;;;3.67;3.67;;;;;12.63;65.75;99848.81;4956899;28;45539;-61
2023/04/23 06:35:02;;;;;;;;;4.33;4.33;;;;;12.56;65.18;99843.88;4957786;28;45514;-61
2023/04/23 06:37:29;;;;;;;;;5.00;5.00;;;;;12.60;66.07;99848.06;4958151;28;45526;-61
2023/04/23 06:39:54;;;;;;;;;3.00;3.00;;;;;12.64;65.27;99842.63;4956827;28;45597;-61
2023/04/23 06:42:20;;;;;;;;;4.00;4.00;;;;;12.57;66.31;99842.09;4956914;28;45397;-62
2023/04/23 06:44:46;;;;;;;;;4.67;4.67;;;;;12.58;66.26;99844.66;4957695;28;46023;-62
2023/04/23 06:47:11;;;;;;;;;5.00;5.00;;;;;12.57;66.85;99842.97;4957104;28;45529;-61
2023/04/23 06:49:37;;;;;;;;;5.67;4.67;;;;;12.55;67.08;99839.56;4957894;28;45517;-61
2023/04/23 06:52:02;;;;;;;;;5.00;5.00;;;;;12.57;66.45;99834.19;4957715;28;47684;-61
2023/04/23 06:54:27;;;;;;;;;5.67;5.67;;;;;12.60;66.91;99826.13;4957826;28;45402;-60
2023/04/23 06:56:53;;;;;;;;;6.67;6.00;;;;;12.66;66.63;99840.75;4956929;28;67354;-61
2023/04/23 06:59:18;;;;;;;;;4.00;4.00;;;;;12.63;66.43;99838.25;4957672;28;45433;-61
2023/04/23 07:01:43;;;;;;;;;2.67;2.67;;;;;12.57;67.64;99837.69;4957747;28;45649;-61
2023/04/23 07:04:09;;;;;;;;;5.67;4.67;;;;;12.58;67.66;99838.53;4957408;28;56080;-61
2023/04/23 07:06:34;;;;;;;;;6.00;6.00;;;;;12.54;67.81;99831.72;4957609;28;45370;-61
2023/04/23 07:08:59;;;;;;;;;6.67;6.67;;;;;12.55;68.05;99814.97;4957567;28;45402;-61
2023/04/23 07:11:25;;;;;;;;;6.00;5.67;;;;;12.55;68.11;99829.00;4957860;28;45435;-61
2023/04/23 07:13:50;;;;;;;;;6.00;6.00;;;;;12.53;68.39;99820.31;4957489;28;45418;-61
2023/04/23 07:16:15;;;;;;;;;7.33;7.00;;;;;12.55;68.94;99822.91;4958122;28;45396;-61
2023/04/23 07:18:41;;;;;;;;;8.67;8.33;;;;;12.50;69.03;99819.66;4957508;28;45380;-63
2023/04/23 07:21:06;;;;;;;;;5.00;4.00;;;;;12.54;69.45;99822.00;4957352;28;45394;-61
2023/04/23 07:23:31;;;;;;;;;6.33;6.33;;;;;12.56;69.89;99816.66;4957240;28;45486;-63
2023/04/23 07:25:57;;;;;;;;;4.67;4.00;;;;;12.56;69.57;99814.03;4956910;28;45451;-62
2023/04/23 07:28:22;;;;;;;;;7.00;7.00;;;;;12.54;69.33;99800.06;4957431;28;45717;-62
2023/04/23 07:30:48;;;;;;;;;7.00;7.00;;;;;12.52;69.52;99808.09;4957153;28;45470;-62
2023/04/23 07:33:13;;;;;;;;;6.67;5.67;;;;;12.51;70.23;99798.44;4957091;28;45518;-62
2023/04/23 07:35:38;;;;;;;;;6.33;6.33;;;;;12.53;69.96;99793.09;4957060;28;45426;-61
2023/04/23 07:38:04;;;;;;;;;6.33;6.33;;;;;12.57;70.25;99786.69;4957215;28;45386;-60
2023/04/23 07:40:29;;;;;;;;;6.00;6.00;;;;;12.58;69.65;99784.00;4957245;28;45484;-62
2023/04/23 07:42:55;;;;;;;;;7.00;6.00;;;;;12.58;70.80;99788.41;4956513;28;54131;-61
2023/04/23 07:45:21;;;;;;;;;6.33;6.33;;;;;12.57;69.97;99792.84;4957005;28;45433;-63
2023/04/23 07:47:48;;;;;;;;;7.67;7.67;;;;;12.56;70.24;99790.28;4957221;28;45481;-63
2023/04/23 07:50:14;;;;;;;;;8.00;8.00;;;;;12.54;70.72;99782.44;4956973;28;45522;-63
2023/04/23 07:52:40;;;;;;;;;7.67;7.67;;;;;12.59;70.55;99796.22;4956740;28;45434;-62
2023/04/23 07:55:06;;;;;;;;;8.67;7.00;;;;;12.61;70.59;99796.16;4956710;28;45815;-63
2023/04/23 07:57:31;;;;;;;;;10.00;10.00;;;;;12.66;70.59;99790.63;4957076;28;45701;-63
2023/04/23 07:59:56;;;;;;;;;8.67;8.67;;;;;12.58;71.04;99772.59;4956617;28;47517;-63
2023/04/23 08:02:24;;;;;;;;;10.00;8.00;;;;;12.56;71.34;99764.75;4956780;28;45454;-63
2023/04/23 08:04:50;;;;;;;;;5.33;5.33;;;;;12.54;70.79;99752.59;4956322;28;45557;-61
2023/04/23 08:07:15;;;;;;;;;8.00;8.00;;;;;12.55;72.08;99752.53;4956874;28;45514;-62
2023/04/23 08:09:41;;;;;;;;;10.33;10.33;;;;;12.55;71.79;99749.88;4956108;28;49136;-61
2023/04/23 08:12:06;;;;;;;;;9.33;9.33;;;;;12.55;72.08;99747.25;4956400;28;45399;-60
2023/04/23 08:14:32;;;;;;;;;6.00;6.00;;;;;12.55;72.60;99744.59;4956629;28;45398;-60
2023/04/23 08:16:57;;;;;;;;;8.00;8.00;;;;;12.58;71.93;99740.94;4956833;28;55635;-60
2023/04/23 08:19:22;;;;;;;;;10.00;8.67;;;;;12.65;71.99;99730.88;4956511;28;45585;-61
2023/04/23 08:21:48;;;;;;;;;9.33;9.33;;;;;12.67;72.60;99707.91;4955380;28;45379;-62
2023/04/23 08:24:13;;;;;;;;;8.00;8.00;;;;;12.66;72.73;99714.97;4956216;28;45393;-61
2023/04/23 08:26:38;;;;;;;;;6.00;6.00;;;;;12.67;72.68;99697.34;4956350;28;48506;-61
2023/04/23 08:29:04;;;;;;;;;9.67;9.67;;;;;12.69;72.73;99685.78;4955332;28;45527;-63
2023/04/23 08:31:30;;;;;;;;;7.00;7.00;;;;;12.71;72.87;99677.78;4956189;28;46062;-60
2023/04/23 08:33:55;;;;;;;;;9.67;8.33;;;;;12.75;72.88;99674.84;4956390;28;45563;-63
2023/04/23 08:36:21;;;;;;;;;8.33;8.33;;;;;12.77;72.62;99677.41;4956286;28;45462;-63
2023/04/23 08:38:46;;;;;;;;;9.00;9.00;;;;;12.79;72.76;99683.44;4956157;28;48849;-60
2023/04/23 08:41:14;;;;;;;;;12.67;11.33;;;;;12.83;72.39;99675.25;4955742;28;54236;-63
2023/04/23 08:44:17;;;;;;;;;12.00;10.00;;;;;12.82;72.41;99656.88;4956145;28;45409;-63
2023/04/23 08:46:44;;;;;;;;;9.33;9.33;;;;;12.82;72.51;99649.81;4956146;28;45554;-62
2023/04/23 08:49:17;;;;;;;;;9.00;9.00;;;;;12.80;73.06;99643.75;4956230;28;45505;-62
2023/04/23 08:51:49;;;;;;;;;8.67;8.67;;;;;12.79;73.08;99628.03;4955958;28;45390;-61
2023/04/23 08:54:26;;;;;;;;;8.00;8.00;;;;;12.82;72.96;99626.06;4955891;28;45455;-61
2023/04/23 08:56:59;;;;;;;;;8.00;7.33;;;;;12.82;72.80;99604.09;4956083;28;45454;-60
2023/04/23 08:59:28;;;;;;;;;9.67;9.67;;;;;12.88;73.51;99624.84;4955954;28;45542;-61
2023/04/23 09:01:54;;;;;;;;;9.67;6.33;;;;;12.90;73.19;99609.75;4955610;28;46502;-61
2023/04/23 09:04:21;;;;;;;;;9.00;9.00;;;;;12.94;73.12;99613.91;4955661;28;45430;-61
2023/04/23 09:06:46;;;;;;;;;9.00;9.00;;;;;12.97;73.35;99600.50;4955769;28;45496;-61
2023/04/23 09:09:16;;;;;;;;;9.33;9.33;;;;;13.02;73.19;99597.59;4956326;28;45360;-61
2023/04/23 09:11:41;;;;;;;;;10.67;8.67;;;;;13.04;72.85;99585.16;4959175;28;45489;-63
2023/04/23 09:14:07;;;;;;;;;12.67;11.00;;;;;13.03;72.64;99568.47;4958987;28;45402;-62
2023/04/23 09:16:33;;;;;;;;;12.33;10.00;;;;;13.07;72.80;99574.41;4959891;28;45451;-63
2023/04/23 09:18:58;;;;;;;;;10.33;9.00;;;;;13.10;73.21;99578.66;4959141;28;45399;-63
2023/04/23 09:21:23;;;;;;;;;12.33;11.33;;;;;13.07;73.28;99561.22;4959100;28;45513;-60
2023/04/23 09:23:52;;;;;;;;;10.67;10.00;;;;;13.11;73.51;99551.28;4959086;28;45500;-62
2023/04/23 09:26:20;;;;;;;;;10.00;10.00;;;;;13.16;73.25;99544.78;4959021;28;45438;-62
2023/04/23 09:28:49;;;;;;;;;11.67;10.00;;;;;13.21;72.89;99537.41;4959078;28;45532;-62
2023/04/23 09:31:20;;;;;;;;;9.33;9.33;;;;;13.20;72.77;99527.81;4958761;28;47148;-62
2023/04/23 09:33:51;;;;;;;;;13.00;10.67;;;;;13.23;72.88;99529.41;4958943;28;45457;-61
2023/04/23 09:36:19;;;;;;;;;10.00;10.00;;;;;13.22;72.45;99525.94;4959067;28;45466;-61
2023/04/23 09:38:45;;;;;;;;;11.33;9.00;;;;;13.24;72.35;99518.78;4959031;28;45387;-62
2023/04/23 09:41:24;;;;;;;;;8.00;8.00;;;;;13.25;72.09;99527.53;4958650;28;45426;-62
2023/04/23 09:43:52;;;;;;;;;9.67;8.00;;;;;13.26;72.37;99521.31;4958860;28;45444;-62
2023/04/23 09:46:17;;;;;;;;;7.67;7.67;;;;;13.26;72.06;99508.13;4958667;28;45431;-62
2023/04/23 09:48:43;;;;;;;;;8.00;6.00;;;;;13.31;71.90;99515.75;4958955;28;45525;-62
2023/04/23 09:51:12;;;;;;;;;7.33;6.67;;;;;13.32;71.59;99507.72;4958640;28;45476;-62
2023/04/23 09:53:42;;;;;;;;;5.67;5.67;;;;;13.36;71.90;99514.50;4959050;28;45442;-62
2023/04/23 09:56:07;;;;;;;;;8.00;8.00;;;;;13.37;71.47;99504.78;4958694;28;45497;-62
2023/04/23 09:58:33;;;;;;;;;7.33;7.33;;;;;13.40;71.15;99523.06;4958400;28;45506;-61
2023/04/23 10:01:06;;;;;;;;;8.00;7.00;;;;;13.40;71.13;99517.78;4958654;28;46168;-61
2023/04/23 10:03:32;;;;;;;;;7.00;7.00;;;;;13.37;70.91;99508.28;4958258;28;45446;-62
2023/04/23 10:05:57;;;;;;;;;10.00;8.00;;;;;13.32;70.99;99501.59;4958539;28;45467;-63
2023/04/23 10:08:23;;;;;;;;;6.67;6.67;;;;;13.30;70.89;99485.00;4958645;28;45598;-62
2023/04/23 10:10:49;;;;;;;;;6.33;6.00;;;;;13.35;70.70;99485.56;4958139;28;45842;-62
2023/04/23 10:13:16;;;;;;;;;8.00;8.00;;;;;13.33;70.92;99467.19;4958592;28;45516;-62
2023/04/23 10:15:45;;;;;;;;;6.67;6.67;;;;;13.37;70.25;99478.38;4957542;28;45485;-62
2023/04/23 10:18:12;;;;;;;;;8.00;8.00;;;;;13.37;70.07;99475.75;4958102;28;45549;-62
2023/04/23 10:20:39;;;;;;;;;7.67;6.00;;;;;13.37;68.90;99471.31;4957277;28;45587;-62
2023/04/23 10:23:07;;;;;;;;;6.00;6.00;;;;;13.29;69.14;99443.72;4957934;28;45376;-62
2023/04/23 10:25:33;;;;;;;;;6.00;5.00;;;;;13.34;70.06;99446.91;4958339;28;45435;-62
2023/04/23 10:28:01;;;;;;;;;9.33;6.67;;;;;13.31;69.21;99432.09;4957845;28;45449;-62
2023/04/23 10:30:28;;;;;;;;;5.67;5.67;;;;;13.34;69.55;99426.63;4957874;28;47250;-62
2023/04/23 10:32:55;;;;;;;;;5.00;5.00;;;;;13.35;69.64;99433.59;4957801;28;45343;-62
2023/04/23 10:35:21;;;;;;;;;5.00;5.00;;;;;13.35;69.43;99427.44;4957860;28;45466;-62
2023/04/23 10:37:48;;;;;;;;;8.33;7.00;;;;;13.40;69.17;99428.00;4957750;28;45474;-62
2023/04/23 10:40:20;;;;;;;;;5.33;5.33;;;;;13.40;68.85;99420.06;4957779;28;45621;-62
2023/04/23 10:42:46;;;;;;;;;7.00;5.67;;;;;13.35;68.70;99417.75;4957798;28;45392;-62
2023/04/23 10:45:20;;;;;;;;;6.33;5.00;;;;;13.41;69.05;99406.78;4957786;28;45495;-62
2023/04/23 10:47:46;;;;;;;;;5.00;5.00;;;;;13.40;68.28;99406.88;4957980;28;45489;-62
2023/04/23 10:50:26;;;;;;;;;5.33;5.33;;;;;13.38;68.53;99396.44;4956218;28;46283;-62
2023/04/23 10:52:53;;;;;;;;;7.67;4.67;;;;;13.40;68.16;99394.50;4957652;28;45411;-61
2023/04/23 10:55:30;;;;;;;;;6.00;6.00;;;;;13.40;68.18;99380.47;4957446;28;45370;-62
2023/04/23 10:58:07;;;;;;;;;4.00;4.00;;;;;13.34;68.29;99363.22;4957441;28;45500;-62
2023/04/23 11:00:44;;;;;;;;;5.00;5.00;;;;;13.40;68.34;99372.53;4957657;28;45426;-62
2023/04/23 11:03:43;;;;;;;;;4.00;4.00;;;;;13.38;68.23;99358.59;4957318;28;45462;-62
2023/04/23 11:06:12;;;;;;;;;5.00;4.00;;;;;13.40;68.07;99365.47;4966790;28;45569;-62
2023/04/23 11:08:51;;;;;;;;;5.67;5.00;;;;;13.40;68.35;99357.53;4957355;28;45369;-62
2023/04/23 11:11:16;;;;;;;;;4.33;4.00;;;;;13.41;68.03;99348.69;4957412;28;45513;-62
2023/04/23 11:14:10;;;;;;;;;5.67;5.67;;;;;13.40;67.99;99328.47;4957409;28;45307;-64
2023/04/23 11:16:35;;;;;;;;;6.00;5.00;;;;;13.40;67.79;99340.84;4958355;28;45453;-62
2023/04/23 11:19:11;;;;;;;;;4.00;4.00;;;;;13.39;67.73;99332.09;4957030;28;45522;-62
2023/04/23 11:21:54;;;;;;;;;3.00;3.00;;;;;13.37;68.03;99328.69;4956196;28;45550;-62
2023/04/23 11:24:22;;;;;;;;;4.67;4.67;;;;;13.42;68.38;99312.56;4957060;28;45355;-64
2023/04/23 11:26:52;;;;;;;;;4.00;2.33;;;;;13.38;67.92;99311.91;4957386;28;45454;-61
2023/04/23 11:29:21;;;;;;;;;2.33;2.33;;;;;13.38;68.24;99304.00;4955561;28;45614;-61